createdAt,value
2019-04-27T00:02:45.697Z,3.90
2019-04-27T00:05:43.490Z,3.90
2019-04-27T00:08:41.095Z,3.80
2019-04-27T00:11:33.202Z,3.70
2019-04-27T00:14:03.824Z,3.70
2019-04-27T00:16:47.039Z,3.60
2019-04-27T00:19:35.339Z,3.50
2019-04-27T00:22:07.235Z,3.40
2019-04-27T00:24:36.892Z,3.30
2019-04-27T00:27:06.711Z,3.30
2019-04-27T00:29:36.116Z,3.20
2019-04-27T00:32:05.945Z,3.20
2019-04-27T00:34:35.775Z,3.20
2019-04-27T00:37:21.597Z,3.20
2019-04-27T00:40:23.561Z,3.10
2019-04-27T00:42:54.208Z,3.00
2019-04-27T00:45:23.758Z,2.90
2019-04-27T00:47:57.426Z,2.80
2019-04-27T00:50:24.500Z,2.80
2019-04-27T00:52:53.825Z,2.80
2019-04-27T00:55:23.454Z,2.80
2019-04-27T00:58:14.935Z,2.70
2019-04-27T01:01:04.137Z,2.60
2019-04-27T01:03:39.964Z,2.60
2019-04-27T01:06:09.353Z,2.60
2019-04-27T01:08:38.731Z,2.60
2019-04-27T01:11:08.172Z,2.60
2019-04-27T01:13:37.756Z,2.50
2019-04-27T01:16:08.611Z,2.50
2019-04-27T01:18:38.754Z,2.50
2019-04-27T01:21:09.237Z,2.40
2019-04-27T01:23:38.824Z,2.30
2019-04-27T01:26:18.916Z,2.30
2019-04-27T01:28:54.339Z,2.20
2019-04-27T01:31:24.049Z,2.10
2019-04-27T01:33:53.533Z,2.20
2019-04-27T01:36:22.975Z,2.20
2019-04-27T01:38:52.689Z,2.20
2019-04-27T01:41:22.024Z,2.10
2019-04-27T01:43:51.539Z,2.00
2019-04-27T01:46:21.101Z,2.00
2019-04-27T01:48:50.897Z,1.90
2019-04-27T01:51:21.065Z,2.00
2019-04-27T01:53:50.986Z,1.90
2019-04-27T01:56:20.603Z,1.90
2019-04-27T01:58:49.971Z,1.70
2019-04-27T02:01:38.978Z,1.80
2019-04-27T02:04:30.469Z,1.80
2019-04-27T02:07:01.517Z,1.90
2019-04-27T02:09:30.881Z,1.80
2019-04-27T02:12:00.497Z,1.80
2019-04-27T02:14:30.007Z,1.80
2019-04-27T02:16:59.664Z,1.80
2019-04-27T02:19:30.099Z,1.80
2019-04-27T02:22:00.003Z,1.70
2019-04-27T02:24:29.410Z,1.80
2019-04-27T02:26:58.861Z,1.70
2019-04-27T02:29:39.612Z,1.70
2019-04-27T02:32:20.153Z,1.70
2019-04-27T02:34:53.693Z,1.70
2019-04-27T02:37:23.168Z,1.70
2019-04-27T02:39:52.694Z,1.60
2019-04-27T02:42:24.105Z,1.60
2019-04-27T02:44:54.008Z,1.60
2019-04-27T02:47:23.461Z,1.70
2019-04-27T02:49:52.809Z,1.70
2019-04-27T02:52:42.791Z,1.70
2019-04-27T02:55:12.525Z,1.60
2019-04-27T02:57:41.897Z,1.50
2019-04-27T03:00:13.383Z,1.50
2019-04-27T03:02:47.416Z,1.50
2019-04-27T03:05:25.628Z,1.60
2019-04-27T03:07:55.617Z,1.50
2019-04-27T03:10:27.122Z,1.70
2019-04-27T03:13:15.604Z,1.60
2019-04-27T03:16:20.485Z,1.70
2019-04-27T03:19:14.640Z,1.80
2019-04-27T03:21:59.304Z,1.80
2019-04-27T03:24:46.431Z,1.70
2019-04-27T03:27:19.871Z,1.70
2019-04-27T03:29:49.874Z,1.70
2019-04-27T03:32:22.671Z,1.70
2019-04-27T03:34:52.538Z,1.80
2019-04-27T03:37:22.468Z,1.80
2019-04-27T03:39:52.229Z,1.90
2019-04-27T03:42:21.833Z,1.90
2019-04-27T03:44:51.268Z,1.80
2019-04-27T03:47:20.631Z,1.80
2019-04-27T03:49:50.910Z,1.80
2019-04-27T03:52:30.453Z,1.80
2019-04-27T03:55:06.392Z,1.80
2019-04-27T03:57:40.706Z,1.80
2019-04-27T04:00:30.028Z,1.70
2019-04-27T04:03:00.517Z,1.70
2019-04-27T04:05:30.513Z,1.70
2019-04-27T04:08:00.608Z,1.70
2019-04-27T04:10:31.595Z,1.90
2019-04-27T04:13:10.771Z,1.90
2019-04-27T04:15:56.649Z,1.90
2019-04-27T04:18:26.747Z,2.00
2019-04-27T04:20:56.311Z,2.10
2019-04-27T04:23:25.714Z,2.40
2019-04-27T04:25:55.232Z,2.40
2019-04-27T04:28:24.624Z,2.40
2019-04-27T04:30:54.048Z,2.40
2019-04-27T04:33:23.656Z,2.40
2019-04-27T04:35:53.163Z,2.60
2019-04-27T04:38:22.886Z,2.60
2019-04-27T04:40:59.381Z,2.70
2019-04-27T04:43:40.034Z,2.70
2019-04-27T04:46:33.583Z,2.70
2019-04-27T04:49:03.626Z,2.80
2019-04-27T04:51:33.214Z,2.80
2019-04-27T04:54:02.990Z,2.90
2019-04-27T04:56:32.593Z,3.00
2019-04-27T04:59:02.081Z,3.00
2019-04-27T05:01:31.499Z,3.10
2019-04-27T05:04:00.952Z,3.10
2019-04-27T05:06:31.631Z,3.20
2019-04-27T05:09:01.019Z,3.20
2019-04-27T05:11:30.688Z,3.30
2019-04-27T05:14:01.554Z,3.30
2019-04-27T05:16:32.787Z,3.30
2019-04-27T05:19:02.221Z,3.40
2019-04-27T05:21:34.183Z,3.50
2019-04-27T05:24:03.779Z,3.50
2019-04-27T05:26:33.347Z,3.50
2019-04-27T05:29:03.786Z,3.50
2019-04-27T05:31:33.365Z,3.50
2019-04-27T05:34:02.719Z,3.50
2019-04-27T05:36:32.238Z,3.60
2019-04-27T05:39:01.608Z,3.70
2019-04-27T05:41:37.653Z,3.80
2019-04-27T05:44:30.870Z,4.00
2019-04-27T05:47:25.606Z,4.20
2019-04-27T05:50:09.073Z,4.70
2019-04-27T05:52:40.947Z,4.90
2019-04-27T05:55:11.070Z,5.00
2019-04-27T05:57:40.683Z,5.20
2019-04-27T06:00:11.325Z,5.30
2019-04-27T06:02:41.138Z,5.50
2019-04-27T06:05:10.703Z,5.80
2019-04-27T06:07:40.089Z,6.10
2019-04-27T06:10:10.036Z,6.40
2019-04-27T06:12:42.434Z,6.80
2019-04-27T06:15:12.082Z,7.10
2019-04-27T06:17:42.113Z,7.30
2019-04-27T06:20:11.648Z,7.50
2019-04-27T06:22:41.435Z,7.70
2019-04-27T06:25:11.802Z,7.80
2019-04-27T06:27:41.751Z,8.00
2019-04-27T06:30:11.364Z,8.20
2019-04-27T06:32:41.080Z,8.50
2019-04-27T06:35:12.437Z,8.70
2019-04-27T06:37:42.030Z,8.90
2019-04-27T06:40:11.630Z,9.10
2019-04-27T06:42:43.911Z,9.30
2019-04-27T06:45:13.721Z,9.60
2019-04-27T06:47:43.157Z,9.70
2019-04-27T06:50:12.843Z,9.90
2019-04-27T06:52:42.487Z,10.00
2019-04-27T06:55:11.910Z,10.20
2019-04-27T06:57:41.417Z,10.30
2019-04-27T07:00:10.950Z,10.50
2019-04-27T07:02:40.390Z,10.60
2019-04-27T07:05:10.351Z,10.70
2019-04-27T07:07:39.745Z,10.70
2019-04-27T07:10:09.218Z,10.80
2019-04-27T07:12:40.992Z,10.80
2019-04-27T07:15:10.300Z,10.80
2019-04-27T07:17:39.802Z,10.80
2019-04-27T07:20:09.378Z,10.90
2019-04-27T07:22:39.685Z,11.00
2019-04-27T07:25:09.322Z,11.00
2019-04-27T07:27:39.460Z,11.10
2019-04-27T07:30:11.728Z,11.00
2019-04-27T07:32:40.928Z,10.90
2019-04-27T07:35:10.581Z,11.00
2019-04-27T07:37:40.084Z,11.10
2019-04-27T07:40:09.707Z,11.10
2019-04-27T07:42:41.441Z,11.20
2019-04-27T07:45:23.516Z,11.30
2019-04-27T07:47:53.332Z,11.30
2019-04-27T07:50:23.187Z,11.50
2019-04-27T07:52:52.850Z,11.70
2019-04-27T07:55:41.431Z,11.80
2019-04-27T07:58:10.824Z,11.80
2019-04-27T08:00:40.348Z,11.80
2019-04-27T08:03:10.316Z,12.10
2019-04-27T08:05:39.990Z,12.00
2019-04-27T08:08:09.723Z,12.20
2019-04-27T08:10:39.371Z,12.30
2019-04-27T08:13:09.606Z,12.30
2019-04-27T08:15:39.766Z,12.40
2019-04-27T08:18:09.569Z,12.30
2019-04-27T08:20:39.212Z,12.20
2019-04-27T08:23:09.650Z,12.10
2019-04-27T08:25:39.364Z,11.90
2019-04-27T08:28:34.012Z,11.80
2019-04-27T08:31:31.781Z,11.60
2019-04-27T08:34:01.530Z,11.40
2019-04-27T08:36:31.106Z,11.30
2019-04-27T08:39:00.726Z,11.20
2019-04-27T08:41:30.334Z,11.20
2019-04-27T08:43:59.917Z,11.30
2019-04-27T08:46:29.381Z,11.50
2019-04-27T08:48:58.878Z,11.80
2019-04-27T08:51:29.113Z,12.00
2019-04-27T08:53:59.192Z,12.30
2019-04-27T08:56:30.436Z,12.50
2019-04-27T08:59:00.132Z,12.50
2019-04-27T09:01:29.966Z,12.50
2019-04-27T09:03:59.622Z,12.30
2019-04-27T09:06:31.167Z,12.30
2019-04-27T09:09:09.318Z,12.30
2019-04-27T09:11:53.918Z,12.10
2019-04-27T09:14:46.661Z,12.20
2019-04-27T09:17:27.119Z,11.90
2019-04-27T09:20:04.412Z,11.60
2019-04-27T09:22:34.116Z,11.50
2019-04-27T09:25:04.045Z,11.50
2019-04-27T09:27:33.742Z,11.50
2019-04-27T09:30:04.068Z,11.50
2019-04-27T09:32:33.588Z,11.50
2019-04-27T09:35:03.076Z,11.60
2019-04-27T09:37:32.825Z,11.60
2019-04-27T09:40:02.330Z,11.90
2019-04-27T09:42:31.980Z,12.10
2019-04-27T09:45:01.496Z,12.20
2019-04-27T09:47:31.119Z,12.20
2019-04-27T09:50:00.644Z,12.40
2019-04-27T09:52:30.476Z,12.60
2019-04-27T09:55:00.241Z,12.70
2019-04-27T09:57:29.828Z,12.60
2019-04-27T09:59:59.321Z,12.90
2019-04-27T10:02:28.942Z,13.00
2019-04-27T10:04:58.655Z,13.00
2019-04-27T10:07:28.266Z,13.00
2019-04-27T10:09:59.310Z,12.90
2019-04-27T10:12:28.866Z,12.70
2019-04-27T10:14:58.545Z,12.50
2019-04-27T10:17:28.082Z,12.30
2019-04-27T10:19:57.509Z,12.00
2019-04-27T10:22:39.861Z,11.70
2019-04-27T10:24:58.569Z,11.50
2019-04-27T10:27:28.014Z,11.60
2019-04-27T10:29:58.530Z,11.60
2019-04-27T10:32:28.217Z,11.70
2019-04-27T10:34:57.940Z,11.80
2019-04-27T10:37:27.332Z,12.00
2019-04-27T10:39:56.915Z,11.90
2019-04-27T10:42:27.182Z,12.00
2019-04-27T10:44:56.895Z,12.20
2019-04-27T10:47:26.591Z,12.30
2019-04-27T10:49:56.717Z,12.70
2019-04-27T10:52:26.156Z,13.00
2019-04-27T10:54:57.409Z,13.00
2019-04-27T10:57:27.046Z,13.00
2019-04-27T10:59:56.627Z,13.00
2019-04-27T11:02:26.008Z,12.80
2019-04-27T11:05:01.388Z,12.70
2019-04-27T11:07:36.173Z,12.80
2019-04-27T11:10:07.684Z,12.50
2019-04-27T11:12:37.468Z,12.50
2019-04-27T11:15:08.524Z,11.90
2019-04-27T11:17:38.055Z,11.90
2019-04-27T11:20:09.281Z,11.90
2019-04-27T11:22:39.052Z,11.70
2019-04-27T11:25:08.891Z,11.70
2019-04-27T11:27:38.547Z,11.70
2019-04-27T11:30:10.287Z,11.70
2019-04-27T11:32:40.074Z,11.80
2019-04-27T11:35:25.653Z,11.80
2019-04-27T11:37:56.750Z,11.80
2019-04-27T11:40:26.612Z,11.90
2019-04-27T11:42:57.330Z,11.80
2019-04-27T11:45:28.510Z,11.80
2019-04-27T11:47:58.069Z,11.80
2019-04-27T11:50:27.745Z,12.10
2019-04-27T11:52:57.636Z,12.40
2019-04-27T11:55:27.509Z,12.60
2019-04-27T11:57:57.071Z,12.80
2019-04-27T12:00:27.735Z,13.40
2019-04-27T12:02:57.849Z,13.60
2019-04-27T12:05:27.638Z,13.10
2019-04-27T12:07:57.132Z,12.90
2019-04-27T12:10:26.641Z,12.80
2019-04-27T12:12:56.456Z,12.80
2019-04-27T12:15:26.419Z,12.70
2019-04-27T12:17:56.370Z,12.70
2019-04-27T12:20:26.008Z,12.90
2019-04-27T12:22:55.777Z,13.30
2019-04-27T12:25:25.127Z,13.60
2019-04-27T12:28:06.977Z,14.00
2019-04-27T12:30:44.100Z,14.20
2019-04-27T12:33:13.871Z,14.30
2019-04-27T12:35:43.324Z,14.30
2019-04-27T12:38:12.874Z,14.60
2019-04-27T12:40:46.528Z,14.20
2019-04-27T12:43:16.150Z,14.00
2019-04-27T12:45:45.996Z,14.20
2019-04-27T12:48:15.683Z,13.80
2019-04-27T12:50:46.205Z,14.10
2019-04-27T12:53:23.115Z,14.30
2019-04-27T12:56:12.562Z,14.40
2019-04-27T12:58:56.438Z,14.30
2019-04-27T13:01:27.158Z,14.20
2019-04-27T13:03:59.083Z,13.70
2019-04-27T13:06:28.589Z,13.70
2019-04-27T13:08:58.223Z,13.50
2019-04-27T13:11:27.714Z,13.30
2019-04-27T13:13:57.738Z,13.20
2019-04-27T13:16:30.279Z,13.40
2019-04-27T13:18:58.924Z,13.40
2019-04-27T13:21:28.796Z,13.30
2019-04-27T13:24:03.979Z,13.00
2019-04-27T13:26:29.742Z,12.90
2019-04-27T13:28:59.215Z,12.80
2019-04-27T13:31:28.807Z,12.70
2019-04-27T13:33:58.376Z,12.70
2019-04-27T13:36:27.798Z,12.70
2019-04-27T13:38:57.423Z,12.70
2019-04-27T13:41:32.615Z,12.80
2019-04-27T13:43:58.599Z,12.90
2019-04-27T13:46:37.169Z,12.70
2019-04-27T13:49:14.291Z,12.70
2019-04-27T13:51:52.191Z,12.50
2019-04-27T13:54:26.377Z,12.40
2019-04-27T13:56:52.904Z,12.40
2019-04-27T13:59:22.367Z,12.30
2019-04-27T14:01:54.840Z,11.80
2019-04-27T14:04:24.340Z,11.80
2019-04-27T14:06:53.833Z,11.70
2019-04-27T14:09:23.275Z,11.80
2019-04-27T14:11:56.496Z,11.70
2019-04-27T14:14:26.066Z,11.60
2019-04-27T14:16:55.514Z,11.30
2019-04-27T14:19:25.042Z,10.90
2019-04-27T14:21:54.848Z,10.60
2019-04-27T14:24:38.652Z,9.90
2019-04-27T14:27:08.744Z,9.70
2019-04-27T14:29:39.137Z,9.50
2019-04-27T14:32:08.848Z,9.40
2019-04-27T14:34:38.328Z,9.30
2019-04-27T14:37:08.630Z,9.30
2019-04-27T14:39:38.974Z,9.30
2019-04-27T14:42:08.636Z,9.40
2019-04-27T14:44:38.959Z,9.40
2019-04-27T14:47:08.587Z,9.50
2019-04-27T14:49:39.060Z,9.60
2019-04-27T14:52:09.589Z,9.60
2019-04-27T14:54:47.771Z,9.60
2019-04-27T14:57:10.653Z,9.70
2019-04-27T14:59:40.168Z,10.00
2019-04-27T15:02:09.747Z,10.10
2019-04-27T15:04:40.230Z,10.40
2019-04-27T15:07:10.705Z,10.80
2019-04-27T15:09:40.264Z,11.60
2019-04-27T15:12:09.953Z,11.00
2019-04-27T15:14:39.463Z,10.80
2019-04-27T15:17:12.505Z,10.40
2019-04-27T15:19:48.462Z,10.30
2019-04-27T15:22:25.455Z,10.30
2019-04-27T15:25:09.061Z,9.80
2019-04-27T15:27:37.414Z,9.50
2019-04-27T15:30:08.720Z,9.40
2019-04-27T15:32:53.950Z,9.00
2019-04-27T15:35:48.828Z,9.10
2019-04-27T15:38:22.584Z,9.40
2019-04-27T15:41:17.210Z,10.50
2019-04-27T15:43:48.701Z,11.10
2019-04-27T15:46:18.737Z,12.50
2019-04-27T15:48:48.705Z,12.00
2019-04-27T15:51:21.101Z,11.50
2019-04-27T15:53:53.726Z,11.80
2019-04-27T15:56:21.813Z,11.60
2019-04-27T15:58:51.552Z,11.50
2019-04-27T16:01:21.229Z,12.00
2019-04-27T16:03:52.149Z,11.90
2019-04-27T16:06:22.008Z,12.20
2019-04-27T16:08:51.582Z,13.60
2019-04-27T16:11:21.116Z,14.70
2019-04-27T16:13:50.869Z,15.90
2019-04-27T16:16:24.460Z,16.30
2019-04-27T16:18:53.128Z,16.30
2019-04-27T16:21:23.839Z,16.20
2019-04-27T16:23:53.587Z,14.70
2019-04-27T16:26:23.086Z,13.60
2019-04-27T16:28:53.451Z,12.40
2019-04-27T16:31:24.784Z,11.90
2019-04-27T16:33:59.128Z,11.60
2019-04-27T16:36:25.857Z,11.10
2019-04-27T16:39:03.850Z,10.80
2019-04-27T16:41:33.094Z,10.50
2019-04-27T16:44:06.798Z,10.40
2019-04-27T16:46:39.439Z,10.00
2019-04-27T16:49:13.562Z,9.90
2019-04-27T16:51:40.317Z,9.70
2019-04-27T16:54:11.097Z,9.80
2019-04-27T16:56:40.640Z,9.70
2019-04-27T16:59:26.774Z,9.60
2019-04-27T17:01:46.378Z,9.60
2019-04-27T17:04:14.991Z,9.50
2019-04-27T17:06:46.032Z,9.60
2019-04-27T17:09:18.727Z,9.90
2019-04-27T17:11:50.172Z,10.70
2019-04-27T17:14:58.043Z,11.80
2019-04-27T17:17:47.156Z,12.10
2019-04-27T17:20:19.549Z,11.70
2019-04-27T17:22:50.222Z,11.60
2019-04-27T17:25:21.065Z,11.70
2019-04-27T17:27:57.764Z,11.60
2019-04-27T17:30:26.812Z,11.30
2019-04-27T17:33:10.329Z,10.70
2019-04-27T17:35:38.978Z,10.40
2019-04-27T17:38:10.535Z,10.40
2019-04-27T17:40:39.007Z,10.20
2019-04-27T17:43:10.552Z,9.90
2019-04-27T17:45:40.218Z,9.90
2019-04-27T17:48:10.893Z,9.80
2019-04-27T17:50:40.868Z,9.60
2019-04-27T17:53:10.430Z,9.50
2019-04-27T17:55:40.033Z,9.40
2019-04-27T17:58:09.504Z,9.30
2019-04-27T18:00:43.446Z,9.20
2019-04-27T18:03:12.615Z,9.00
2019-04-27T18:05:43.808Z,8.80
2019-04-27T18:08:13.618Z,8.70
2019-04-27T18:10:44.905Z,8.80
2019-04-27T18:13:14.619Z,8.80
2019-04-27T18:15:45.669Z,8.70
2019-04-27T18:18:43.831Z,8.60
2019-04-27T18:21:14.477Z,8.60
2019-04-27T18:23:52.301Z,8.50
2019-04-27T18:26:48.777Z,8.50
2019-04-27T18:29:11.462Z,8.40
2019-04-27T18:31:41.392Z,8.50
2019-04-27T18:34:14.964Z,8.50
2019-04-27T18:36:44.005Z,8.50
2019-04-27T18:39:14.517Z,8.40
2019-04-27T18:41:48.922Z,8.20
2019-04-27T18:44:15.570Z,8.20
2019-04-27T18:46:45.208Z,8.30
2019-04-27T18:49:38.493Z,8.10
2019-04-27T18:52:26.169Z,8.00
2019-04-27T18:54:55.805Z,8.00
2019-04-27T18:57:25.631Z,7.90
2019-04-27T18:59:55.605Z,7.80
2019-04-27T19:02:25.322Z,7.70
2019-04-27T19:04:54.960Z,7.70
2019-04-27T19:07:24.849Z,7.60
2019-04-27T19:09:54.676Z,7.60
2019-04-27T19:12:25.015Z,7.60
2019-04-27T19:14:54.872Z,7.60
2019-04-27T19:17:25.042Z,7.50
2019-04-27T19:19:54.557Z,7.30
2019-04-27T19:22:24.373Z,6.90
2019-04-27T19:24:54.057Z,6.60
2019-04-27T19:27:33.102Z,6.60
2019-04-27T19:30:12.735Z,6.50
2019-04-27T19:32:43.041Z,6.40
2019-04-27T19:35:12.727Z,6.50
2019-04-27T19:37:42.534Z,6.50
2019-04-27T19:40:12.776Z,6.70
2019-04-27T19:42:42.343Z,6.60
2019-04-27T19:45:12.247Z,6.70
2019-04-27T19:47:42.029Z,6.40
2019-04-27T19:50:12.718Z,6.30
2019-04-27T19:52:42.459Z,6.20
2019-04-27T19:55:12.133Z,6.10
2019-04-27T19:57:42.200Z,6.20
2019-04-27T20:00:34.385Z,6.10
2019-04-27T20:03:05.602Z,6.00
2019-04-27T20:05:35.323Z,6.00
2019-04-27T20:08:06.713Z,5.90
2019-04-27T20:10:36.778Z,5.90
2019-04-27T20:13:06.585Z,5.90
2019-04-27T20:15:36.232Z,5.90
2019-04-27T20:18:06.373Z,5.60
2019-04-27T20:20:36.576Z,5.40
2019-04-27T20:23:06.090Z,5.20
2019-04-27T20:25:36.180Z,5.10
2019-04-27T20:28:06.169Z,5.20
2019-04-27T20:30:36.009Z,5.10
2019-04-27T20:33:05.831Z,5.00
2019-04-27T20:35:35.667Z,5.10
2019-04-27T20:38:05.317Z,5.00
2019-04-27T20:40:34.942Z,4.90
2019-04-27T20:43:04.399Z,4.90
2019-04-27T20:45:34.047Z,4.80
2019-04-27T20:48:03.827Z,4.70
2019-04-27T20:50:33.848Z,4.70
2019-04-27T20:53:06.834Z,4.60
2019-04-27T20:55:36.739Z,4.40
2019-04-27T20:58:06.292Z,4.30
2019-04-27T21:00:35.837Z,4.20
2019-04-27T21:03:12.021Z,4.10
2019-04-27T21:05:54.584Z,4.10
2019-04-27T21:08:25.493Z,4.00
2019-04-27T21:10:55.199Z,4.40
2019-04-27T21:13:25.375Z,4.10
2019-04-27T21:15:58.220Z,4.20
2019-04-27T21:18:27.958Z,4.20
2019-04-27T21:20:57.571Z,4.20
2019-04-27T21:23:27.230Z,4.20
2019-04-27T21:25:56.806Z,4.10
2019-04-27T21:28:26.361Z,4.00
2019-04-27T21:30:56.283Z,3.80
2019-04-27T21:33:26.656Z,3.60
2019-04-27T21:35:56.117Z,3.60
2019-04-27T21:38:25.657Z,3.40
2019-04-27T21:40:55.150Z,3.30
2019-04-27T21:43:24.869Z,3.20
2019-04-27T21:45:54.273Z,3.20
2019-04-27T21:48:23.975Z,3.20
2019-04-27T21:50:53.456Z,3.20
2019-04-27T21:53:31.181Z,3.30
2019-04-27T21:56:06.012Z,3.30
2019-04-27T21:58:35.538Z,3.40
2019-04-27T22:01:24.785Z,3.30
2019-04-27T22:03:54.222Z,3.30
2019-04-27T22:06:24.205Z,3.30
2019-04-27T22:08:53.771Z,3.20
2019-04-27T22:11:23.187Z,3.00
2019-04-27T22:13:52.769Z,2.90
2019-04-27T22:16:22.352Z,2.90
2019-04-27T22:18:54.848Z,2.80
2019-04-27T22:21:24.379Z,2.80
2019-04-27T22:24:08.513Z,2.80
2019-04-27T22:26:38.183Z,2.90
2019-04-27T22:29:07.804Z,2.70
2019-04-27T22:31:37.299Z,2.60
2019-04-27T22:34:06.924Z,2.40
2019-04-27T22:36:36.365Z,2.40
2019-04-27T22:39:25.550Z,2.20
2019-04-27T22:42:07.063Z,2.30
2019-04-27T22:44:51.061Z,2.10
2019-04-27T22:47:21.559Z,2.10
2019-04-27T22:49:51.302Z,1.80
2019-04-27T22:52:21.871Z,1.80
2019-04-27T22:54:51.784Z,1.70
2019-04-27T22:57:26.973Z,1.70
2019-04-27T23:00:14.219Z,1.70
2019-04-27T23:02:52.136Z,1.80
2019-04-27T23:05:21.417Z,1.60
2019-04-27T23:07:51.757Z,1.70
2019-04-27T23:10:21.438Z,1.60
2019-04-27T23:12:51.122Z,1.50
2019-04-27T23:15:23.323Z,1.30
2019-04-27T23:17:57.052Z,1.10
2019-04-27T23:20:26.899Z,1.10
2019-04-27T23:22:56.829Z,1.10
2019-04-27T23:25:26.520Z,1.20
2019-04-27T23:27:55.982Z,1.30
2019-04-27T23:30:34.146Z,1.50
2019-04-27T23:33:03.742Z,1.60
2019-04-27T23:35:33.533Z,1.80
2019-04-27T23:38:14.844Z,2.00
2019-04-27T23:40:34.477Z,2.10
2019-04-27T23:43:04.091Z,2.20
2019-04-27T23:45:33.494Z,2.40
2019-04-27T23:48:03.031Z,2.70
2019-04-27T23:50:34.090Z,2.80
2019-04-27T23:53:18.467Z,2.80
2019-04-27T23:55:47.840Z,3.10
2019-04-27T23:58:17.299Z,3.10
